Decoded Metar for YGTH ( in ) (IATA:) | Meteo·Mobile Aviation Weather
aviador You're here:

YGTH Decoded Metar

in
Report Time2019-10-21 08:00:00
UTC Time2019-10-21 08:22:18
Flight Rules vfr VFR
WindCalm
Visibility9999 m
Phenomena:N/A
Clouds:N/A
Expected CloudBase > 9,200 ft AGL from Temp-Dew spread
CeilingNone
Temp27°C
Dew Point04°C (23% RH)
Heat Index26.2°C
AAT25.7°C
QNH1022 hPa
Raw Report
METAR YGTH 210800Z AUTO 00000KT 9999 // NCD 27/04 Q1022=

Extra information for YGTH:More info

Social comments